KBRY/BRY METAR and TAF weather

Enter ICAO airport designator
Station Type Date Time Source
KBRY METAR 2021/01/22 07:15 UTC NOAA

KBRY 220715Z AUTO 23003KT 10SM CLR 01/01 A2992 RMK AO1


Station Type Date Time Source
KBRY Decoded METAR 2021/01/22 07:15 UTC NOAA

Error!

Station Type Date Time Source
KBRY TAF UTC NOAA

Error!

Example: see airport list